createdAt,value
2018-12-16T00:00:07.917Z,70.43
2018-12-16T00:05:12.674Z,82.83
2018-12-16T00:10:17.198Z,75.67
2018-12-16T00:15:21.708Z,65.90
2018-12-16T00:20:26.233Z,88.77
2018-12-16T00:25:30.773Z,73.50
2018-12-16T00:30:35.298Z,66.17
2018-12-16T00:35:39.846Z,70.57
2018-12-16T00:40:44.357Z,70.40
2018-12-16T00:45:48.877Z,60.90
2018-12-16T00:50:53.398Z,60.80
2018-12-16T00:55:57.910Z,62.27
2018-12-16T01:01:02.421Z,63.60
2018-12-16T01:06:06.929Z,62.63
2018-12-16T01:11:11.445Z,63.07
2018-12-16T01:16:15.958Z,52.97
2018-12-16T01:21:20.464Z,55.17
2018-12-16T01:26:24.989Z,47.67
2018-12-16T01:31:29.513Z,43.07
2018-12-16T01:36:34.056Z,39.10
2018-12-16T01:41:38.607Z,40.83
2018-12-16T01:46:43.109Z,43.43
2018-12-16T01:51:47.620Z,42.67
2018-12-16T01:56:52.117Z,41.90
2018-12-16T02:01:56.625Z,51.20
2018-12-16T02:07:01.154Z,46.83
2018-12-16T02:12:05.687Z,44.30
2018-12-16T02:17:10.200Z,49.50
2018-12-16T02:22:14.744Z,48.97
2018-12-16T02:27:19.263Z,44.03
2018-12-16T02:32:23.838Z,51.33
2018-12-16T02:37:28.363Z,55.87
2018-12-16T02:42:32.899Z,51.20
2018-12-16T02:47:37.417Z,57.07
2018-12-16T02:52:41.956Z,52.47
2018-12-16T02:57:46.441Z,59.50
2018-12-16T03:02:50.981Z,59.17
2018-12-16T03:07:55.493Z,60.73
2018-12-16T03:12:59.994Z,64.10
2018-12-16T03:18:04.515Z,69.63
2018-12-16T03:23:12.316Z,66.97
2018-12-16T03:28:13.607Z,53.10
2018-12-16T03:33:18.123Z,69.67
2018-12-16T03:38:22.625Z,66.03
2018-12-16T03:43:27.175Z,69.07
2018-12-16T03:48:31.709Z,72.67
2018-12-16T03:53:36.237Z,65.67
2018-12-16T03:58:56.544Z,67.70
2018-12-16T04:04:01.046Z,63.40
2018-12-16T04:09:06.313Z,66.47
2018-12-16T04:14:10.824Z,64.23
2018-12-16T04:19:15.349Z,73.27
2018-12-16T04:24:19.869Z,62.80
2018-12-16T04:29:24.418Z,62.87
2018-12-16T04:34:28.963Z,67.53
2018-12-16T04:39:33.493Z,74.93
2018-12-16T04:44:38.031Z,73.50
2018-12-16T04:49:42.533Z,68.00
2018-12-16T04:54:47.053Z,72.27
2018-12-16T04:59:51.577Z,63.83
2018-12-16T05:04:56.111Z,62.13
2018-12-16T05:10:16.376Z,60.80
2018-12-16T05:15:20.895Z,70.30
2018-12-16T05:20:25.393Z,61.80
2018-12-16T05:25:29.935Z,62.43
2018-12-16T05:30:34.457Z,58.13
2018-12-16T05:35:39.021Z,59.07
2018-12-16T05:40:43.517Z,71.50
2018-12-16T05:45:48.114Z,57.83
2018-12-16T05:50:52.632Z,57.93
2018-12-16T05:55:57.151Z,63.57
2018-12-16T06:01:01.673Z,62.23
2018-12-16T06:06:06.197Z,53.70
2018-12-16T06:11:10.717Z,55.67
2018-12-16T06:16:15.217Z,59.67
2018-12-16T06:21:19.718Z,57.27
2018-12-16T06:26:24.210Z,63.17
2018-12-16T06:31:28.735Z,56.50
2018-12-16T06:36:33.237Z,62.60
2018-12-16T06:41:37.746Z,51.30
2018-12-16T06:46:42.253Z,57.70
2018-12-16T06:51:46.786Z,59.57
2018-12-16T06:56:51.292Z,57.20
2018-12-16T07:01:55.805Z,62.50
2018-12-16T07:07:00.312Z,53.57
2018-12-16T07:12:04.834Z,57.10
2018-12-16T07:17:09.350Z,58.33
2018-12-16T07:22:13.876Z,67.47
2018-12-16T07:27:18.441Z,62.77
2018-12-16T07:32:22.983Z,64.00
2018-12-16T07:37:27.520Z,60.53
2018-12-16T07:42:32.094Z,65.97
2018-12-16T07:47:36.634Z,68.57
2018-12-16T07:52:41.134Z,54.87
2018-12-16T07:57:45.645Z,65.57
2018-12-16T08:02:50.232Z,67.20
2018-12-16T08:07:54.713Z,66.70
2018-12-16T08:12:59.210Z,56.13
2018-12-16T08:18:03.702Z,58.77
2018-12-16T08:23:08.341Z,62.23
2018-12-16T08:28:12.911Z,58.97
2018-12-16T08:33:17.434Z,60.10
2018-12-16T08:38:21.925Z,56.50
2018-12-16T08:43:26.440Z,59.07
2018-12-16T08:48:31.013Z,58.10
2018-12-16T08:53:35.503Z,58.17
2018-12-16T08:58:40.021Z,54.50
2018-12-16T09:03:44.545Z,56.10
2018-12-16T09:08:49.075Z,56.43
2018-12-16T09:13:53.590Z,49.40
2018-12-16T09:18:58.176Z,52.87
2018-12-16T09:24:02.686Z,55.87
2018-12-16T09:29:13.788Z,49.33
2018-12-16T09:34:18.357Z,57.20
2018-12-16T09:39:23.345Z,52.93
2018-12-16T09:44:27.854Z,66.03
2018-12-16T09:49:32.343Z,49.97
2018-12-16T09:54:36.842Z,49.43
2018-12-16T09:59:41.365Z,56.67
2018-12-16T10:04:45.893Z,50.17
2018-12-16T10:09:50.401Z,50.13
2018-12-16T10:14:54.913Z,51.93
2018-12-16T10:19:59.429Z,38.73
2018-12-16T10:25:04.004Z,44.90
2018-12-16T10:30:10.217Z,49.87
2018-12-16T10:35:14.746Z,47.23
2018-12-16T10:40:19.241Z,37.07
2018-12-16T10:45:23.794Z,46.57
2018-12-16T10:50:28.341Z,38.37
2018-12-16T10:55:32.921Z,37.17
2018-12-16T11:00:42.591Z,40.77
2018-12-16T11:05:47.134Z,40.47
2018-12-16T11:10:51.762Z,36.47
2018-12-16T11:15:56.285Z,44.73
2018-12-16T11:21:00.788Z,34.03
2018-12-16T11:26:05.598Z,40.93
2018-12-16T11:31:10.150Z,32.93
2018-12-16T11:36:14.665Z,39.00
2018-12-16T11:41:19.205Z,41.60
2018-12-16T11:46:23.736Z,36.43
2018-12-16T11:51:28.265Z,29.23
2018-12-16T11:56:32.785Z,40.27
2018-12-16T12:01:37.299Z,31.73
2018-12-16T12:06:41.809Z,36.80
2018-12-16T12:11:46.347Z,27.47
2018-12-16T12:16:50.845Z,33.87
2018-12-16T12:21:55.365Z,35.87
2018-12-16T12:26:59.854Z,30.20
2018-12-16T12:32:04.389Z,36.50
2018-12-16T12:37:08.893Z,32.60
2018-12-16T12:42:13.393Z,35.27
2018-12-16T12:47:17.879Z,33.93
2018-12-16T12:52:22.398Z,37.30
2018-12-16T12:57:26.949Z,31.90
2018-12-16T13:02:31.438Z,30.33
2018-12-16T13:07:35.949Z,33.40
2018-12-16T13:12:40.467Z,26.63
2018-12-16T13:17:44.974Z,26.27
2018-12-16T13:22:49.491Z,29.57
2018-12-16T13:27:54.013Z,35.73
2018-12-16T13:32:58.534Z,27.43
2018-12-16T13:38:03.098Z,25.33
2018-12-16T13:43:07.612Z,35.30
2018-12-16T13:48:12.269Z,27.87
2018-12-16T13:53:16.910Z,23.83
2018-12-16T13:58:21.512Z,25.83
2018-12-16T14:03:26.037Z,28.73
2018-12-16T14:08:30.576Z,23.67
2018-12-16T14:13:35.136Z,26.93
2018-12-16T14:18:39.671Z,28.53
2018-12-16T14:23:44.202Z,28.83
2018-12-16T14:28:48.736Z,25.40
2018-12-16T14:33:53.244Z,24.40
2018-12-16T14:38:57.747Z,22.93
2018-12-16T14:44:02.242Z,29.53
2018-12-16T14:49:06.798Z,29.27
2018-12-16T14:54:11.297Z,26.10
2018-12-16T14:59:15.819Z,29.80
2018-12-16T15:04:20.409Z,26.33
2018-12-16T15:09:24.956Z,23.57
2018-12-16T15:14:29.494Z,31.10
2018-12-16T15:19:34.026Z,23.50
2018-12-16T15:24:38.547Z,29.13
2018-12-16T15:29:43.070Z,28.13
2018-12-16T15:34:47.665Z,29.07
2018-12-16T15:39:52.182Z,36.17
2018-12-16T15:44:56.681Z,28.17
2018-12-16T15:50:01.228Z,31.80
2018-12-16T15:55:09.284Z,28.27
2018-12-16T16:00:13.851Z,31.37
2018-12-16T16:05:18.414Z,33.37
2018-12-16T16:10:22.913Z,26.70
2018-12-16T16:15:27.430Z,30.73
2018-12-16T16:20:31.959Z,29.60
2018-12-16T16:25:36.513Z,28.57
2018-12-16T16:30:41.081Z,31.13
2018-12-16T16:35:45.607Z,32.57
2018-12-16T16:40:50.154Z,32.47
2018-12-16T16:45:56.345Z,35.67
2018-12-16T16:51:00.949Z,33.37
2018-12-16T16:56:05.462Z,31.07
2018-12-16T17:01:10.029Z,36.00
2018-12-16T17:06:14.549Z,36.73
2018-12-16T17:11:19.122Z,35.43
2018-12-16T17:16:23.682Z,31.07
2018-12-16T17:21:28.274Z,31.37
2018-12-16T17:26:32.812Z,38.00
2018-12-16T17:31:37.348Z,33.70
2018-12-16T17:36:41.990Z,30.73
2018-12-16T17:41:46.565Z,33.43
2018-12-16T17:46:51.194Z,32.63
2018-12-16T17:51:55.821Z,32.50
2018-12-16T17:57:00.502Z,32.53
2018-12-16T18:02:05.103Z,33.90
2018-12-16T18:07:09.715Z,33.27
2018-12-16T18:12:14.238Z,37.57
2018-12-16T18:17:19.118Z,30.47
2018-12-16T18:22:23.670Z,32.10
2018-12-16T18:27:28.218Z,31.87
2018-12-16T18:32:32.847Z,30.40
2018-12-16T18:37:37.509Z,30.97
2018-12-16T18:42:42.172Z,30.63
2018-12-16T18:47:46.734Z,34.43
2018-12-16T18:52:51.370Z,32.23
2018-12-16T18:57:55.922Z,35.00
2018-12-16T19:03:00.441Z,34.77
2018-12-16T19:08:04.953Z,35.87
2018-12-16T19:13:09.529Z,37.43
2018-12-16T19:18:14.108Z,41.57
2018-12-16T19:23:18.658Z,38.63
2018-12-16T19:28:23.213Z,31.10
2018-12-16T19:33:27.818Z,36.13
2018-12-16T19:38:32.445Z,35.80
2018-12-16T19:43:37.122Z,34.10
2018-12-16T19:48:41.729Z,32.50
2018-12-16T19:53:46.280Z,35.17
2018-12-16T19:58:50.981Z,36.20
2018-12-16T20:04:00.889Z,28.97
2018-12-16T20:09:06.782Z,29.20
2018-12-16T20:14:11.422Z,34.03
2018-12-16T20:19:16.014Z,34.93
2018-12-16T20:24:20.570Z,37.50
2018-12-16T20:29:25.137Z,40.63
2018-12-16T20:34:29.693Z,35.53
2018-12-16T20:39:36.051Z,35.77
2018-12-16T20:44:40.589Z,34.93
2018-12-16T20:49:45.140Z,32.77
2018-12-16T20:54:49.711Z,34.20
2018-12-16T20:59:54.283Z,37.60
2018-12-16T21:04:58.819Z,29.37
2018-12-16T21:10:03.373Z,33.50
2018-12-16T21:15:13.701Z,30.73
2018-12-16T21:20:18.225Z,33.47
2018-12-16T21:25:22.778Z,33.30
2018-12-16T21:30:27.606Z,35.00
2018-12-16T21:35:32.173Z,34.77
2018-12-16T21:40:36.698Z,33.27
2018-12-16T21:45:41.244Z,35.17
2018-12-16T21:50:45.774Z,36.20
2018-12-16T21:55:51.105Z,34.03
2018-12-16T22:00:55.694Z,35.13
2018-12-16T22:06:00.285Z,34.87
2018-12-16T22:11:04.823Z,43.37
2018-12-16T22:16:09.409Z,36.17
2018-12-16T22:21:13.989Z,35.30
2018-12-16T22:26:18.541Z,36.47
2018-12-16T22:31:23.066Z,39.97
2018-12-16T22:36:27.570Z,39.83
2018-12-16T22:41:32.206Z,33.03
2018-12-16T22:46:36.850Z,36.77
2018-12-16T22:51:41.745Z,36.73
2018-12-16T22:56:46.592Z,42.17
2018-12-16T23:01:51.197Z,40.77
2018-12-16T23:06:55.869Z,41.70
2018-12-16T23:12:00.435Z,39.73
2018-12-16T23:17:05.009Z,41.53
2018-12-16T23:22:09.572Z,40.47
2018-12-16T23:27:14.157Z,41.97
2018-12-16T23:32:18.737Z,39.83
2018-12-16T23:37:23.315Z,44.87
2018-12-16T23:42:27.911Z,41.93
2018-12-16T23:47:32.519Z,42.13
2018-12-16T23:52:37.163Z,43.93
2018-12-16T23:57:41.909Z,41.63
